• Join FlightAware (Why Join?)
  • Login
  • US Flag 
04:14PM EDT


 

Airport Tracker/Info


-or-


 

Live Flight TrackerFlight Track Log ✈ EGF4039 ✈ 10-Apr-2013 ✈ KALO - KORD

Flight Track Log - Related Links

Times and Time Zones

All times are in EDT time to prevent confusion due to time zone crossing. See the EGF4039 flight status page for this flight to view local times or setup timezone preferences in your user account.

Time Position Orientation Groundspeed Altitude Reporting Facility
EDT Latitude Longitude Course Direction KTS MPH feet Rate Location/Type
10:09PM 42.5378 -92.3661 97° East 156 180 2,400  Level Chicago Center
10:10PM 42.5106 -92.3083 123° Southeast 211 243 4,800 2,040 Climbing Chicago Center
10:11PM 42.5069 -92.2211 93° East 223 257 6,600 1,920 Climbing Chicago Center
10:12PM 42.5017 -92.1219 94° East 244 281 8,800 1,860 Climbing Chicago Center
10:13PM 42.4901 -91.7570 97° East  Level FlightAware Approximate
10:13PM 42.4950 -92.0122 95° East 271 312 10,400  Level Chicago Center
10:14PM 42.4828 -91.6278 97° East  Level FlightAware Approximate
10:14PM 42.4844 -91.8644 95° East 312 359 12,300  Level Chicago Center
10:15PM 42.4753 -91.7378 96° East 335 386 14,200 1,740 Climbing Chicago Center
10:16PM 42.4767 -91.6133 89° East 337 388 15,900 1,440 Climbing Chicago Center
10:17PM 42.4836 -91.4806 86° East 356 410 17,200 1,140 Climbing Chicago Center
10:18PM 42.4897 -91.3372 87° East 382 440 18,300 1,080 Climbing Chicago Center
10:19PM 42.4967 -91.1536 87° East 414 476 19,500 1,080 Climbing Chicago Center
10:20PM 42.5019 -90.9922 87° East 431 496 20,600 1,140 Climbing Chicago Center
10:21PM 42.5089 -90.8247 87° East 447 514 21,900 1,140 Climbing Chicago Center
10:22PM 42.5142 -90.6600 87° East 445 512 23,000 480 Climbing Chicago Center
10:23PM 42.5183 -90.4869 88° East 461 531 23,000  Level Chicago Center
10:24PM 42.5250 -90.3092 87° East 474 545 23,000  Level Chicago Center
10:25PM 42.5314 -90.1308 87° East 478 550 23,000 -420 Level Chicago Center
10:26PM 42.5372 -89.9178 88° East 474 545 22,200 -1,380 Descending Chicago Center
10:27PM 42.5419 -89.7469 88° East 470 541 20,300 -1,920 Descending Chicago Center
10:28PM 42.5472 -89.5769 88° East 455 524 18,400 -1,920 Descending Chicago Center
10:29PM 42.5511 -89.4133 88° East 439 505 16,400 -1,860 Descending Chicago Center
10:30PM 42.5536 -89.2492 89° East 437 503 14,600 -1,140 Descending Chicago Center
10:32PM 42.5531 -89.0711 90° East 408 470 14,100 -720 Descending Chicago Center
10:33PM 42.5172 -88.9642 114° Southeast 314 361 13,200 -1,140 Descending Chicago Center
10:34PM 42.5186 -88.8508 89° East 304 350 11,900 -1,260 Descending Chicago Center
10:35PM 42.4997 -88.7569 105° East 260 299 10,700 -1,320 Descending Chicago Center
10:36PM 42.4583 -88.6719 123° Southeast 268 308 9,300 -840 Descending Chicago Center
10:37PM 42.4183 -88.5911 124° Southeast 261 300 9,100 -120 Descending Chicago Center
10:38PM 42.3792 -88.5083 123° Southeast 261 300 9,100 -60 Level Chicago Center
10:39PM 42.3317 -88.4489 137° Southeast 251 289 9,000 -60 Descending Chicago Center
10:40PM 42.2656 -88.4569 185° South 206 237 9,000 -60 Level Chicago Center
10:41PM 42.2075 -88.4639 185° South 208 239 8,900 -540 Descending Chicago Center
10:42PM 42.1500 -88.4686 183° South 208 239 8,000 -600 Descending Chicago Center
10:43PM 42.0958 -88.4758 186° South 200 230 7,800 -480 Descending Chicago Center
10:44PM 42.0453 -88.4969 197° South 192 221 7,100 -360 Descending Chicago Center
10:45PM 41.9944 -88.5175 197° South 196 226 7,100 -240 Level Chicago Center
10:46PM 41.9636 -88.4708 132° Southeast 214 246 6,700 -960 Descending Chicago Center
10:47PM 41.9936 -88.4053 58° Northeast 205 236 5,200 -840 Descending Chicago Center
10:48PM 41.9825 -88.3472 104° East 187 215 5,000 -120 Descending Chicago Center
10:49PM 41.9672 -88.2858 108° East 184 212 5,000  Level Chicago Center
10:50PM 41.9675 -88.2203 90° East 175 201 5,000 -540 Level Chicago Center
10:51PM 41.9678 -88.1514 90° East 180 207 3,900 -1,080 Descending Chicago Center
10:51PM 41.9667 -88.1167 92° East 175 201 3,600 -960 Descending Chicago TRACON